sensor_id;sensor_type;location;lat;lon;timestamp;pressure;altitude;pressure_sealevel;temperature;humidity
4133;BME280;2080;51.038;7.008;2023-04-06T00:01:51;77237.22;;;-142.53;100.00
4133;BME280;2080;51.038;7.008;2023-04-06T00:04:19;77256.66;;;-142.53;100.00
4133;BME280;2080;51.038;7.008;2023-04-06T00:06:47;77260.53;;;-142.53;100.00
4133;BME280;2080;51.038;7.008;2023-04-06T00:09:13;77272.19;;;-142.53;100.00
4133;BME280;2080;51.038;7.008;2023-04-06T00:11:38;77279.97;;;-142.53;100.00
4133;BME280;2080;51.038;7.008;2023-04-06T00:14:06;77279.97;;;-142.53;100.00
4133;BME280;2080;51.038;7.008;2023-04-06T00:16:34;77291.63;;;-142.53;100.00
4133;BME280;2080;51.038;7.008;2023-04-06T00:19:02;77295.50;;;-142.53;100.00
4133;BME280;2080;51.038;7.008;2023-04-06T00:21:27;77295.50;;;-142.53;100.00
4133;BME280;2080;51.038;7.008;2023-04-06T00:23:58;77287.75;;;-142.53;100.00
4133;BME280;2080;51.038;7.008;2023-04-06T00:26:23;77303.28;;;-142.53;100.00
4133;BME280;2080;51.038;7.008;2023-04-06T00:28:49;77295.50;;;-142.53;100.00
4133;BME280;2080;51.038;7.008;2023-04-06T00:31:17;77289.69;;;-142.53;100.00
4133;BME280;2080;51.038;7.008;2023-04-06T00:33:42;77299.41;;;-142.53;100.00
4133;BME280;2080;51.038;7.008;2023-04-06T00:36:10;77295.50;;;-142.53;100.00
4133;BME280;2080;51.038;7.008;2023-04-06T00:38:35;77303.28;;;-142.53;100.00
4133;BME280;2080;51.038;7.008;2023-04-06T00:41:03;77314.94;;;-142.53;99.46
4133;BME280;2080;51.038;7.008;2023-04-06T00:43:32;77307.16;;;-142.53;100.00
4133;BME280;2080;51.038;7.008;2023-04-06T00:45:57;77307.16;;;-142.53;100.00
4133;BME280;2080;51.038;7.008;2023-04-06T00:48:25;77293.56;;;-142.53;100.00
4133;BME280;2080;51.038;7.008;2023-04-06T00:50:51;77291.63;;;-142.53;100.00
4133;BME280;2080;51.038;7.008;2023-04-06T00:53:16;77283.84;;;-142.53;100.00
4133;BME280;2080;51.038;7.008;2023-04-06T00:55:42;77276.09;;;-142.53;100.00
4133;BME280;2080;51.038;7.008;2023-04-06T00:58:08;77301.34;;;-142.53;100.00
4133;BME280;2080;51.038;7.008;2023-04-06T01:00:33;77314.94;;;-142.53;100.00
4133;BME280;2080;51.038;7.008;2023-04-06T01:03:01;77322.72;;;-142.53;100.00
4133;BME280;2080;51.038;7.008;2023-04-06T01:05:26;77334.38;;;-142.53;100.00
4133;BME280;2080;51.038;7.008;2023-04-06T01:07:52;77320.78;;;-142.53;100.00
4133;BME280;2080;51.038;7.008;2023-04-06T01:10:27;77313.00;;;-142.53;100.00
4133;BME280;2080;51.038;7.008;2023-04-06T01:12:55;77316.88;;;-142.53;100.00
4133;BME280;2080;51.038;7.008;2023-04-06T01:15:21;77287.75;;;-142.53;100.00
4133;BME280;2080;51.038;7.008;2023-04-06T01:17:47;77291.63;;;-142.53;100.00
4133;BME280;2080;51.038;7.008;2023-04-06T01:20:15;77301.34;;;-142.53;100.00
4133;BME280;2080;51.038;7.008;2023-04-06T01:22:40;77318.81;;;-142.53;100.00
4133;BME280;2080;51.038;7.008;2023-04-06T01:25:06;77326.59;;;-142.53;100.00
4133;BME280;2080;51.038;7.008;2023-04-06T01:27:34;77322.72;;;-142.53;100.00
4133;BME280;2080;51.038;7.008;2023-04-06T01:29:59;77334.38;;;-142.53;100.00
4133;BME280;2080;51.038;7.008;2023-04-06T01:32:27;77357.69;;;-142.53;100.00
4133;BME280;2080;51.038;7.008;2023-04-06T01:34:53;77365.47;;;-142.53;100.00
4133;BME280;2080;51.038;7.008;2023-04-06T01:37:19;77381.00;;;-142.53;100.00
4133;BME280;2080;51.038;7.008;2023-04-06T01:39:45;77373.22;;;-142.53;100.00
4133;BME280;2080;51.038;7.008;2023-04-06T01:42:11;77369.34;;;-142.53;100.00
4133;BME280;2080;51.038;7.008;2023-04-06T01:44:36;77357.69;;;-142.53;100.00
4133;BME280;2080;51.038;7.008;2023-04-06T01:47:02;77346.03;;;-142.53;100.00
4133;BME280;2080;51.038;7.008;2023-04-06T01:49:27;77346.03;;;-142.53;100.00
4133;BME280;2080;51.038;7.008;2023-04-06T01:51:55;77355.75;;;-142.53;100.00
4133;BME280;2080;51.038;7.008;2023-04-06T01:54:28;77357.69;;;-142.53;100.00
4133;BME280;2080;51.038;7.008;2023-04-06T01:56:53;77357.69;;;-142.53;100.00
4133;BME280;2080;51.038;7.008;2023-04-06T01:59:18;77353.78;;;-142.53;100.00
4133;BME280;2080;51.038;7.008;2023-04-06T02:01:44;77342.13;;;-142.53;100.00
4133;BME280;2080;51.038;7.008;2023-04-06T02:04:12;77349.91;;;-142.53;100.00
4133;BME280;2080;51.038;7.008;2023-04-06T02:06:40;77392.66;;;-142.53;100.00
4133;BME280;2080;51.038;7.008;2023-04-06T02:09:07;77361.56;;;-142.53;100.00
4133;BME280;2080;51.038;7.008;2023-04-06T02:11:33;77384.88;;;-142.53;100.00
4133;BME280;2080;51.038;7.008;2023-04-06T02:13:58;77351.84;;;-142.53;100.00
4133;BME280;2080;51.038;7.008;2023-04-06T02:16:26;77324.66;;;-142.53;100.00
4133;BME280;2080;51.038;7.008;2023-04-06T02:18:51;77322.72;;;-142.53;100.00
4133;BME280;2080;51.038;7.008;2023-04-06T02:21:16;77311.06;;;-142.53;100.00
4133;BME280;2080;51.038;7.008;2023-04-06T02:23:46;77349.91;;;-142.53;100.00
4133;BME280;2080;51.038;7.008;2023-04-06T02:26:14;77342.13;;;-142.53;100.00
4133;BME280;2080;51.038;7.008;2023-04-06T02:28:40;77336.31;;;-142.53;100.00
4133;BME280;2080;51.038;7.008;2023-04-06T02:31:06;77346.03;;;-142.53;100.00
4133;BME280;2080;51.038;7.008;2023-04-06T02:33:31;77363.50;;;-142.53;100.00
4133;BME280;2080;51.038;7.008;2023-04-06T02:35:57;77375.16;;;-142.53;100.00
4133;BME280;2080;51.038;7.008;2023-04-06T02:38:24;77386.81;;;-142.53;100.00
4133;BME280;2080;51.038;7.008;2023-04-06T02:40:50;77392.66;;;-142.53;100.00
4133;BME280;2080;51.038;7.008;2023-04-06T02:43:18;77369.34;;;-142.53;100.00
4133;BME280;2080;51.038;7.008;2023-04-06T02:45:44;77346.03;;;-142.53;100.00
4133;BME280;2080;51.038;7.008;2023-04-06T02:48:10;77365.47;;;-142.53;100.00
4133;BME280;2080;51.038;7.008;2023-04-06T02:50:35;77373.22;;;-142.53;100.00
4133;BME280;2080;51.038;7.008;2023-04-06T02:53:00;77349.91;;;-142.53;100.00
4133;BME280;2080;51.038;7.008;2023-04-06T02:55:26;77384.88;;;-142.53;100.00
4133;BME280;2080;51.038;7.008;2023-04-06T02:57:51;77379.06;;;-142.53;100.00
4133;BME280;2080;51.038;7.008;2023-04-06T03:00:17;77379.06;;;-142.53;100.00
4133;BME280;2080;51.038;7.008;2023-04-06T03:02:45;77373.22;;;-142.53;100.00
4133;BME280;2080;51.038;7.008;2023-04-06T03:05:10;77377.13;;;-142.53;100.00
4133;BME280;2080;51.038;7.008;2023-04-06T03:07:35;77357.69;;;-142.53;100.00
4133;BME280;2080;51.038;7.008;2023-04-06T03:10:03;77363.50;;;-142.53;100.00
4133;BME280;2080;51.038;7.008;2023-04-06T03:12:31;77392.66;;;-142.53;100.00
4133;BME280;2080;51.038;7.008;2023-04-06T03:14:59;77423.75;;;-142.53;100.00
4133;BME280;2080;51.038;7.008;2023-04-06T03:17:30;77404.31;;;-142.53;100.00
4133;BME280;2080;51.038;7.008;2023-04-06T03:19:55;77390.72;;;-142.53;100.00
4133;BME280;2080;51.038;7.008;2023-04-06T03:22:23;77392.66;;;-142.53;100.00
4133;BME280;2080;51.038;7.008;2023-04-06T03:24:48;77396.53;;;-142.53;100.00
4133;BME280;2080;51.038;7.008;2023-04-06T03:27:13;77400.44;;;-142.53;100.00
4133;BME280;2080;51.038;7.008;2023-04-06T03:29:41;77396.53;;;-142.53;100.00
4133;BME280;2080;51.038;7.008;2023-04-06T03:32:06;77394.59;;;-142.53;100.00
4133;BME280;2080;51.038;7.008;2023-04-06T03:34:32;77388.78;;;-142.53;100.00
4133;BME280;2080;51.038;7.008;2023-04-06T03:36:57;77386.81;;;-142.53;100.00
4133;BME280;2080;51.038;7.008;2023-04-06T03:39:22;77373.22;;;-142.53;100.00
4133;BME280;2080;51.038;7.008;2023-04-06T03:41:48;77346.03;;;-142.53;100.00
4133;BME280;2080;51.038;7.008;2023-04-06T03:44:15;77353.78;;;-142.53;100.00
4133;BME280;2080;51.038;7.008;2023-04-06T03:46:41;77349.91;;;-142.53;100.00
4133;BME280;2080;51.038;7.008;2023-04-06T03:49:09;77347.97;;;-142.53;100.00
4133;BME280;2080;51.038;7.008;2023-04-06T03:51:37;77377.13;;;-142.53;100.00
4133;BME280;2080;51.038;7.008;2023-04-06T03:54:03;77388.78;;;-142.53;100.00
4133;BME280;2080;51.038;7.008;2023-04-06T03:56:28;77388.78;;;-142.53;100.00
4133;BME280;2080;51.038;7.008;2023-04-06T03:58:56;77386.81;;;-142.53;100.00
4133;BME280;2080;51.038;7.008;2023-04-06T04:01:21;77375.16;;;-142.53;100.00
4133;BME280;2080;51.038;7.008;2023-04-06T04:03:52;77361.56;;;-142.53;100.00
4133;BME280;2080;51.038;7.008;2023-04-06T04:06:18;77353.78;;;-142.53;100.00
4133;BME280;2080;51.038;7.008;2023-04-06T04:08:46;77369.34;;;-142.53;100.00
4133;BME280;2080;51.038;7.008;2023-04-06T04:11:11;77381.00;;;-142.53;100.00
4133;BME280;2080;51.038;7.008;2023-04-06T04:13:40;77388.78;;;-142.53;100.00
4133;BME280;2080;51.038;7.008;2023-04-06T04:16:06;77357.69;;;-142.53;100.00
4133;BME280;2080;51.038;7.008;2023-04-06T04:18:33;77346.03;;;-142.53;100.00
4133;BME280;2080;51.038;7.008;2023-04-06T04:20:59;77334.38;;;-142.53;100.00
4133;BME280;2080;51.038;7.008;2023-04-06T04:23:24;77344.09;;;-142.53;100.00
4133;BME280;2080;51.038;7.008;2023-04-06T04:25:50;77338.25;;;-142.53;100.00
4133;BME280;2080;51.038;7.008;2023-04-06T04:28:16;77349.91;;;-142.53;100.00
4133;BME280;2080;51.038;7.008;2023-04-06T04:30:41;77357.69;;;-142.53;100.00
4133;BME280;2080;51.038;7.008;2023-04-06T04:33:07;77408.19;;;-142.53;100.00
4133;BME280;2080;51.038;7.008;2023-04-06T04:35:32;77419.84;;;-142.53;100.00
4133;BME280;2080;51.038;7.008;2023-04-06T04:37:57;77435.41;;;-142.53;100.00
4133;BME280;2080;51.038;7.008;2023-04-06T04:40:23;77431.50;;;-142.53;100.00
4133;BME280;2080;51.038;7.008;2023-04-06T04:42:50;77415.97;;;-142.53;100.00
4133;BME280;2080;51.038;7.008;2023-04-06T04:45:16;77431.50;;;-142.53;100.00
4133;BME280;2080;51.038;7.008;2023-04-06T04:47:41;77435.41;;;-142.53;100.00
4133;BME280;2080;51.038;7.008;2023-04-06T04:50:09;77431.50;;;-142.53;100.00
4133;BME280;2080;51.038;7.008;2023-04-06T04:52:40;77462.59;;;-142.53;100.00
4133;BME280;2080;51.038;7.008;2023-04-06T04:55:05;77445.13;;;-142.53;100.00
4133;BME280;2080;51.038;7.008;2023-04-06T04:57:31;77443.16;;;-142.53;100.00
4133;BME280;2080;51.038;7.008;2023-04-06T04:59:56;77435.41;;;-142.53;100.00
4133;BME280;2080;51.038;7.008;2023-04-06T05:02:25;77423.75;;;-142.53;100.00
4133;BME280;2080;51.038;7.008;2023-04-06T05:04:50;77415.97;;;-142.53;100.00
4133;BME280;2080;51.038;7.008;2023-04-06T05:07:16;77396.53;;;-142.53;100.00
4133;BME280;2080;51.038;7.008;2023-04-06T05:09:43;77379.06;;;-142.53;100.00
4133;BME280;2080;51.038;7.008;2023-04-06T05:12:09;77369.34;;;-142.53;100.00
4133;BME280;2080;51.038;7.008;2023-04-06T05:14:39;77377.13;;;-142.53;100.00
4133;BME280;2080;51.038;7.008;2023-04-06T05:17:10;77365.47;;;-142.53;100.00
4133;BME280;2080;51.038;7.008;2023-04-06T05:19:35;77365.47;;;-142.53;100.00
4133;BME280;2080;51.038;7.008;2023-04-06T05:22:00;77357.69;;;-142.53;100.00
4133;BME280;2080;51.038;7.008;2023-04-06T05:24:26;77369.34;;;-142.53;100.00
4133;BME280;2080;51.038;7.008;2023-04-06T05:26:54;77353.78;;;-142.53;100.00
4133;BME280;2080;51.038;7.008;2023-04-06T05:29:19;77346.03;;;-142.53;100.00
4133;BME280;2080;51.038;7.008;2023-04-06T05:31:47;77316.88;;;-142.53;100.00
4133;BME280;2080;51.038;7.008;2023-04-06T05:34:12;77281.91;;;-142.53;100.00
4133;BME280;2080;51.038;7.008;2023-04-06T05:36:38;77268.31;;;-142.53;100.00
4133;BME280;2080;51.038;7.008;2023-04-06T05:39:05;77270.25;;;-142.53;100.00
4133;BME280;2080;51.038;7.008;2023-04-06T05:41:33;77274.13;;;-142.53;100.00
4133;BME280;2080;51.038;7.008;2023-04-06T05:44:01;77276.09;;;-142.53;100.00
4133;BME280;2080;51.038;7.008;2023-04-06T05:46:28;77272.19;;;-142.53;100.00
4133;BME280;2080;51.038;7.008;2023-04-06T05:48:54;77260.53;;;-142.53;100.00
4133;BME280;2080;51.038;7.008;2023-04-06T05:51:22;77241.13;;;-142.53;100.00
4133;BME280;2080;51.038;7.008;2023-04-06T05:53:47;77229.47;;;-142.53;100.00
4133;BME280;2080;51.038;7.008;2023-04-06T05:56:12;77206.16;;;-142.53;100.00
4133;BME280;2080;51.038;7.008;2023-04-06T05:58:38;77202.25;;;-142.53;100.00
4133;BME280;2080;51.038;7.008;2023-04-06T06:01:03;77182.81;;;-142.53;100.00
4133;BME280;2080;51.038;7.008;2023-04-06T06:03:30;77161.47;;;-142.53;100.00
4133;BME280;2080;51.038;7.008;2023-04-06T06:06:02;77142.03;;;-142.53;100.00
4133;BME280;2080;51.038;7.008;2023-04-06T06:08:30;77128.44;;;-142.53;100.00
4133;BME280;2080;51.038;7.008;2023-04-06T06:10:56;77124.53;;;-142.53;100.00
4133;BME280;2080;51.038;7.008;2023-04-06T06:13:26;77110.94;;;-142.53;100.00
4133;BME280;2080;51.038;7.008;2023-04-06T06:15:51;77105.13;;;-142.53;100.00
4133;BME280;2080;51.038;7.008;2023-04-06T06:18:19;77109.00;;;-142.53;99.06
4133;BME280;2080;51.038;7.008;2023-04-06T06:20:44;77074.03;;;-142.53;99.19
4133;BME280;2080;51.038;7.008;2023-04-06T06:23:10;77046.84;;;-142.53;99.74
4133;BME280;2080;51.038;7.008;2023-04-06T06:25:35;77044.91;;;-142.53;99.44
4133;BME280;2080;51.038;7.008;2023-04-06T06:28:03;77039.06;;;-142.53;99.12
4133;BME280;2080;51.038;7.008;2023-04-06T06:30:28;77013.81;;;-142.53;95.32
4133;BME280;2080;51.038;7.008;2023-04-06T06:32:56;77004.09;;;-142.53;99.55
4133;BME280;2080;51.038;7.008;2023-04-06T06:35:21;76984.66;;;-142.53;100.00
4133;BME280;2080;51.038;7.008;2023-04-06T06:37:47;76974.97;;;-142.53;97.61
4133;BME280;2080;51.038;7.008;2023-04-06T06:40:15;76955.53;;;-142.53;99.23
4133;BME280;2080;51.038;7.008;2023-04-06T06:42:42;76953.59;;;-142.53;98.71
4133;BME280;2080;51.038;7.008;2023-04-06T06:45:09;76926.41;;;-142.53;97.64
4133;BME280;2080;51.038;7.008;2023-04-06T06:47:36;76910.84;;;-142.53;94.78
4133;BME280;2080;51.038;7.008;2023-04-06T06:50:02;76906.97;;;-142.53;99.55
4133;BME280;2080;51.038;7.008;2023-04-06T06:52:28;76881.72;;;-142.53;97.79
4133;BME280;2080;51.038;7.008;2023-04-06T06:54:54;76868.13;;;-142.53;94.96
4133;BME280;2080;51.038;7.008;2023-04-06T06:57:19;76844.81;;;-142.53;97.27
4133;BME280;2080;51.038;7.008;2023-04-06T06:59:44;76829.25;;;-142.53;95.45
4133;BME280;2080;51.038;7.008;2023-04-06T07:02:10;76813.72;;;-142.53;92.21
4133;BME280;2080;51.038;7.008;2023-04-06T07:04:37;76794.28;;;-142.53;90.34
4133;BME280;2080;51.038;7.008;2023-04-06T07:07:03;76784.59;;;-142.53;93.92
4133;BME280;2080;51.038;7.008;2023-04-06T07:09:30;76757.38;;;-142.53;90.82
4133;BME280;2080;51.038;7.008;2023-04-06T07:11:56;76724.38;;;-142.53;92.73
4133;BME280;2080;51.038;7.008;2023-04-06T07:14:21;76714.66;;;-142.53;82.89
4133;BME280;2080;51.038;7.008;2023-04-06T07:16:49;76668.03;;;-142.53;83.20
4133;BME280;2080;51.038;7.008;2023-04-06T07:19:19;76640.84;;;-142.53;82.42
4133;BME280;2080;51.038;7.008;2023-04-06T07:21:45;76615.59;;;-142.53;75.34
4133;BME280;2080;51.038;7.008;2023-04-06T07:24:13;76584.50;;;-142.53;79.65
4133;BME280;2080;51.038;7.008;2023-04-06T07:26:38;76563.13;;;-142.53;77.29
4133;BME280;2080;51.038;7.008;2023-04-06T07:29:03;76502.91;;;-142.53;86.41
4133;BME280;2080;51.038;7.008;2023-04-06T07:31:29;76485.44;;;-142.53;77.83
4133;BME280;2080;51.038;7.008;2023-04-06T07:33:54;76446.59;;;-142.53;63.65
4133;BME280;2080;51.038;7.008;2023-04-06T07:36:20;76394.16;;;-142.53;72.00
4133;BME280;2080;51.038;7.008;2023-04-06T07:38:45;76355.31;;;-142.53;69.39
4133;BME280;2080;51.038;7.008;2023-04-06T07:41:11;76351.41;;;-142.53;52.86
4133;BME280;2080;51.038;7.008;2023-04-06T07:43:39;76285.38;;;-142.53;60.37
4133;BME280;2080;51.038;7.008;2023-04-06T07:46:04;76227.13;;;-142.53;56.65
4133;BME280;2080;51.038;7.008;2023-04-06T07:48:29;76213.53;;;-142.53;52.02
4133;BME280;2080;51.038;7.008;2023-04-06T07:51:02;76207.69;;;-142.53;49.70
4133;BME280;2080;51.038;7.008;2023-04-06T07:53:31;76196.03;;;-142.53;46.16
4133;BME280;2080;51.038;7.008;2023-04-06T07:55:58;76180.50;;;-142.53;42.85
4133;BME280;2080;51.038;7.008;2023-04-06T07:58:23;76172.72;;;-142.53;44.27
4133;BME280;2080;51.038;7.008;2023-04-06T08:00:49;76153.31;;;-142.53;42.53
4133;BME280;2080;51.038;7.008;2023-04-06T08:03:14;76145.53;;;-142.53;41.95
4133;BME280;2080;51.038;7.008;2023-04-06T08:05:41;76168.84;;;-142.53;41.94
4133;BME280;2080;51.038;7.008;2023-04-06T08:08:07;76137.78;;;-142.53;44.05
4133;BME280;2080;51.038;7.008;2023-04-06T08:10:33;76133.88;;;-142.53;40.71
4133;BME280;2080;51.038;7.008;2023-04-06T08:12:59;76139.72;;;-142.53;40.73
4133;BME280;2080;51.038;7.008;2023-04-06T08:15:25;76128.06;;;-142.53;39.84
4133;BME280;2080;51.038;7.008;2023-04-06T08:17:50;76091.16;;;-142.53;40.02
4133;BME280;2080;51.038;7.008;2023-04-06T08:20:15;76071.75;;;-142.53;40.75
4133;BME280;2080;51.038;7.008;2023-04-06T08:22:41;76032.91;;;-142.53;39.59
4133;BME280;2080;51.038;7.008;2023-04-06T08:25:06;76009.59;;;-142.53;39.66
4133;BME280;2080;51.038;7.008;2023-04-06T08:27:34;75978.50;;;-142.53;38.51
4133;BME280;2080;51.038;7.008;2023-04-06T08:30:00;75974.63;;;-142.53;38.55
4133;BME280;2080;51.038;7.008;2023-04-06T08:32:28;75959.09;;;-142.53;38.17
4133;BME280;2080;51.038;7.008;2023-04-06T08:34:54;75941.63;;;-142.53;38.30
4133;BME280;2080;51.038;7.008;2023-04-06T08:37:20;75928.03;;;-142.53;38.10
4133;BME280;2080;51.038;7.008;2023-04-06T08:39:48;75908.59;;;-142.53;37.40
4133;BME280;2080;51.038;7.008;2023-04-06T08:42:19;75912.50;;;-142.53;37.45
4133;BME280;2080;51.038;7.008;2023-04-06T08:44:45;75931.91;;;-142.53;36.98
4133;BME280;2080;51.038;7.008;2023-04-06T08:47:13;75916.38;;;-142.53;37.23
4133;BME280;2080;51.038;7.008;2023-04-06T08:49:39;75916.38;;;-142.53;36.96
4133;BME280;2080;51.038;7.008;2023-04-06T08:52:07;75865.88;;;-142.53;37.57
4133;BME280;2080;51.038;7.008;2023-04-06T08:54:37;75865.88;;;-142.53;36.74
4133;BME280;2080;51.038;7.008;2023-04-06T08:57:04;75858.09;;;-142.53;36.19
4133;BME280;2080;51.038;7.008;2023-04-06T08:59:31;75834.81;;;-142.53;36.58
4133;BME280;2080;51.038;7.008;2023-04-06T09:01:57;75846.47;;;-142.53;36.04
4133;BME280;2080;51.038;7.008;2023-04-06T09:04:23;75790.13;;;-142.53;36.22
4133;BME280;2080;51.038;7.008;2023-04-06T09:06:51;75764.91;;;-142.53;35.58
4133;BME280;2080;51.038;7.008;2023-04-06T09:09:17;75743.53;;;-142.53;35.51
4133;BME280;2080;51.038;7.008;2023-04-06T09:11:49;75720.22;;;-142.53;35.51
4133;BME280;2080;51.038;7.008;2023-04-06T09:14:16;75683.34;;;-142.53;35.90
4133;BME280;2080;51.038;7.008;2023-04-06T09:16:43;75636.72;;;-142.53;35.26
4133;BME280;2080;51.038;7.008;2023-04-06T09:19:09;75648.38;;;-142.53;34.89
4133;BME280;2080;51.038;7.008;2023-04-06T09:21:35;75630.91;;;-142.53;35.49
4133;BME280;2080;51.038;7.008;2023-04-06T09:24:10;75613.41;;;-142.53;35.63
4133;BME280;2080;51.038;7.008;2023-04-06T09:26:46;75605.66;;;-142.53;35.43
4133;BME280;2080;51.038;7.008;2023-04-06T09:29:22;75566.81;;;-142.53;35.54
4133;BME280;2080;51.038;7.008;2023-04-06T09:31:48;75516.34;;;-142.53;35.11
4133;BME280;2080;51.038;7.008;2023-04-06T09:34:21;75512.44;;;-142.53;34.82
4133;BME280;2080;51.038;7.008;2023-04-06T09:36:47;75481.38;;;-142.53;35.05
4133;BME280;2080;51.038;7.008;2023-04-06T09:39:13;75469.72;;;-142.53;34.68
4133;BME280;2080;51.038;7.008;2023-04-06T09:41:41;75452.25;;;-142.53;34.34
4133;BME280;2080;51.038;7.008;2023-04-06T09:44:11;75407.59;;;-142.53;34.56
4133;BME280;2080;51.038;7.008;2023-04-06T09:46:41;75382.34;;;-142.53;33.72
4133;BME280;2080;51.038;7.008;2023-04-06T09:49:07;75395.94;;;-142.53;34.18
4133;BME280;2080;51.038;7.008;2023-04-06T09:51:38;75403.72;;;-142.53;33.60
4133;BME280;2080;51.038;7.008;2023-04-06T09:54:04;75384.28;;;-142.53;33.80
4133;BME280;2080;51.038;7.008;2023-04-06T09:56:50;75366.81;;;-142.53;33.57
4133;BME280;2080;51.038;7.008;2023-04-06T09:59:50;75364.88;;;-142.53;33.77
4133;BME280;2080;51.038;7.008;2023-04-06T10:05:21;75392.06;;;-142.53;33.54
4133;BME280;2080;51.038;7.008;2023-04-06T10:07:50;75357.09;;;-142.53;34.03
4133;BME280;2080;51.038;7.008;2023-04-06T10:10:16;75357.09;;;-142.53;33.80
4133;BME280;2080;51.038;7.008;2023-04-06T10:12:41;75399.81;;;-142.53;34.19
4133;BME280;2080;51.038;7.008;2023-04-06T10:15:08;75337.69;;;-142.53;33.93
4133;BME280;2080;51.038;7.008;2023-04-06T10:17:37;75337.69;;;-142.53;33.80
4133;BME280;2080;51.038;7.008;2023-04-06T10:20:09;75314.38;;;-142.53;34.04
4133;BME280;2080;51.038;7.008;2023-04-06T10:22:45;75287.19;;;-142.53;33.13
4133;BME280;2080;51.038;7.008;2023-04-06T10:25:28;75256.13;;;-142.53;33.62
4133;BME280;2080;51.038;7.008;2023-04-06T10:27:59;75232.84;;;-142.53;33.09
4133;BME280;2080;51.038;7.008;2023-04-06T10:30:28;75217.31;;;-142.53;32.88
4133;BME280;2080;51.038;7.008;2023-04-06T10:32:54;75205.66;;;-142.53;33.19
4133;BME280;2080;51.038;7.008;2023-04-06T10:35:20;75209.53;;;-142.53;32.92
4133;BME280;2080;51.038;7.008;2023-04-06T10:37:50;75225.06;;;-142.53;32.26
4133;BME280;2080;51.038;7.008;2023-04-06T10:40:21;75236.72;;;-142.53;33.25
4133;BME280;2080;51.038;7.008;2023-04-06T10:42:47;75221.19;;;-142.53;32.94
4133;BME280;2080;51.038;7.008;2023-04-06T10:45:20;75260.00;;;-142.53;32.95
4133;BME280;2080;51.038;7.008;2023-04-06T10:47:49;75225.06;;;-142.53;33.04
4133;BME280;2080;51.038;7.008;2023-04-06T10:50:15;75230.88;;;-142.53;32.50
4133;BME280;2080;51.038;7.008;2023-04-06T10:52:44;75182.34;;;-142.53;32.78
4133;BME280;2080;51.038;7.008;2023-04-06T10:55:16;75149.34;;;-142.53;32.54
4133;BME280;2080;51.038;7.008;2023-04-06T10:57:44;75151.28;;;-142.53;32.71
4133;BME280;2080;51.038;7.008;2023-04-06T11:00:12;75170.69;;;-142.53;32.67
4133;BME280;2080;51.038;7.008;2023-04-06T11:02:37;75188.19;;;-142.53;31.85
4133;BME280;2080;51.038;7.008;2023-04-06T11:05:03;75197.88;;;-142.53;32.18
4133;BME280;2080;51.038;7.008;2023-04-06T11:07:29;75178.47;;;-142.53;32.00
4133;BME280;2080;51.038;7.008;2023-04-06T11:09:56;75174.59;;;-142.53;32.58
4133;BME280;2080;51.038;7.008;2023-04-06T11:12:27;75139.63;;;-142.53;32.51
4133;BME280;2080;51.038;7.008;2023-04-06T11:15:00;75141.56;;;-142.53;31.96
4133;BME280;2080;51.038;7.008;2023-04-06T11:17:38;75131.88;;;-142.53;31.75
4133;BME280;2080;51.038;7.008;2023-04-06T11:20:09;75124.09;;;-142.53;31.34
4133;BME280;2080;51.038;7.008;2023-04-06T11:22:47;75081.38;;;-142.53;31.50
4133;BME280;2080;51.038;7.008;2023-04-06T11:25:12;75069.75;;;-142.53;31.67
4133;BME280;2080;51.038;7.008;2023-04-06T11:27:38;75085.28;;;-142.53;32.35
4133;BME280;2080;51.038;7.008;2023-04-06T11:30:05;75093.03;;;-142.53;32.21
4133;BME280;2080;51.038;7.008;2023-04-06T11:32:40;75065.84;;;-142.53;32.18
4133;BME280;2080;51.038;7.008;2023-04-06T11:35:07;75133.81;;;-142.53;31.82
4133;BME280;2080;51.038;7.008;2023-04-06T11:37:37;75145.47;;;-142.53;32.07
4133;BME280;2080;51.038;7.008;2023-04-06T11:40:03;75151.28;;;-142.53;31.90
4133;BME280;2080;51.038;7.008;2023-04-06T11:42:29;75174.59;;;-142.53;32.43
4133;BME280;2080;51.038;7.008;2023-04-06T11:44:59;75120.22;;;-142.53;31.95
4133;BME280;2080;51.038;7.008;2023-04-06T11:47:29;75190.13;;;-142.53;31.95
4133;BME280;2080;51.038;7.008;2023-04-06T11:49:56;75186.22;;;-142.53;32.03
4133;BME280;2080;51.038;7.008;2023-04-06T11:52:26;75174.59;;;-142.53;32.24
4133;BME280;2080;51.038;7.008;2023-04-06T11:54:53;75135.75;;;-142.53;32.15
4133;BME280;2080;51.038;7.008;2023-04-06T11:57:21;75077.50;;;-142.53;31.84
4133;BME280;2080;51.038;7.008;2023-04-06T11:59:52;75093.03;;;-142.53;31.72
4133;BME280;2080;51.038;7.008;2023-04-06T12:02:18;75048.38;;;-142.53;32.46
4133;BME280;2080;51.038;7.008;2023-04-06T12:04:44;75034.78;;;-142.53;32.12
4133;BME280;2080;51.038;7.008;2023-04-06T12:07:12;75104.69;;;-142.53;31.20
4133;BME280;2080;51.038;7.008;2023-04-06T12:09:37;75127.97;;;-142.53;31.85
4133;BME280;2080;51.038;7.008;2023-04-06T12:12:03;75135.75;;;-142.53;31.97
4133;BME280;2080;51.038;7.008;2023-04-06T12:14:29;75108.56;;;-142.53;32.03
4133;BME280;2080;51.038;7.008;2023-04-06T12:16:57;75116.34;;;-142.53;32.20
4133;BME280;2080;51.038;7.008;2023-04-06T12:19:23;75120.22;;;-142.53;32.37
4133;BME280;2080;51.038;7.008;2023-04-06T12:21:51;75081.38;;;-142.53;31.43
4133;BME280;2080;51.038;7.008;2023-04-06T12:24:17;75089.16;;;-142.53;31.38
4133;BME280;2080;51.038;7.008;2023-04-06T12:26:42;75077.50;;;-142.53;31.59
4133;BME280;2080;51.038;7.008;2023-04-06T12:29:08;75077.50;;;-142.53;31.63
4133;BME280;2080;51.038;7.008;2023-04-06T12:31:37;75102.75;;;-142.53;31.86
4133;BME280;2080;51.038;7.008;2023-04-06T12:34:10;75085.28;;;-142.53;31.08
4133;BME280;2080;51.038;7.008;2023-04-06T12:36:38;75075.56;;;-142.53;31.79
4133;BME280;2080;51.038;7.008;2023-04-06T12:39:05;75116.34;;;-142.53;31.72
4133;BME280;2080;51.038;7.008;2023-04-06T12:41:31;75112.44;;;-142.53;31.30
4133;BME280;2080;51.038;7.008;2023-04-06T12:43:57;75135.75;;;-142.53;30.34
4133;BME280;2080;51.038;7.008;2023-04-06T12:46:26;75182.34;;;-142.53;30.94
4133;BME280;2080;51.038;7.008;2023-04-06T12:48:52;75228.94;;;-142.53;31.65
4133;BME280;2080;51.038;7.008;2023-04-06T12:51:24;75205.66;;;-142.53;32.20
4133;BME280;2080;51.038;7.008;2023-04-06T12:53:50;75166.81;;;-142.53;32.13
4133;BME280;2080;51.038;7.008;2023-04-06T12:56:17;75151.28;;;-142.53;31.84
4133;BME280;2080;51.038;7.008;2023-04-06T12:58:44;75143.53;;;-142.53;32.04